sensor_id;sensor_type;location;lat;lon;timestamp;noise_LAeq;noise_LA_min;noise_LA_max;noise_LA01;noise_LA95
57439;Laerm;43282;47.188;8.896;2023-03-30T00:01:54;43.41;39.34;53.21;;
57439;Laerm;43282;47.188;8.896;2023-03-30T00:04:19;46.90;39.46;59.48;;
57439;Laerm;43282;47.188;8.896;2023-03-30T00:06:47;46.74;40.27;61.04;;
57439;Laerm;43282;47.188;8.896;2023-03-30T00:09:12;45.23;39.92;60.22;;
57439;Laerm;43282;47.188;8.896;2023-03-30T00:11:38;47.77;41.61;58.03;;
57439;Laerm;43282;47.188;8.896;2023-03-30T00:14:04;46.65;42.35;57.61;;
57439;Laerm;43282;47.188;8.896;2023-03-30T00:16:29;48.56;40.53;62.59;;
57439;Laerm;43282;47.188;8.896;2023-03-30T00:18:55;45.74;40.23;59.53;;
57439;Laerm;43282;47.188;8.896;2023-03-30T00:21:21;46.32;41.26;60.38;;
57439;Laerm;43282;47.188;8.896;2023-03-30T00:23:46;44.99;40.23;56.31;;
57439;Laerm;43282;47.188;8.896;2023-03-30T00:26:12;49.47;38.81;63.07;;
57439;Laerm;43282;47.188;8.896;2023-03-30T00:28:38;46.77;38.52;63.17;;
57439;Laerm;43282;47.188;8.896;2023-03-30T00:31:04;44.45;38.37;55.55;;
57439;Laerm;43282;47.188;8.896;2023-03-30T00:33:29;46.10;39.34;60.13;;
57439;Laerm;43282;47.188;8.896;2023-03-30T00:35:55;43.95;40.71;55.01;;
57439;Laerm;43282;47.188;8.896;2023-03-30T00:38:21;41.60;39.08;46.02;;
57439;Laerm;43282;47.188;8.896;2023-03-30T00:40:53;47.16;40.33;60.85;;
57439;Laerm;43282;47.188;8.896;2023-03-30T00:43:19;46.05;39.34;59.67;;
57439;Laerm;43282;47.188;8.896;2023-03-30T00:45:45;48.99;40.54;65.30;;
57439;Laerm;43282;47.188;8.896;2023-03-30T00:48:11;45.46;40.03;54.09;;
57439;Laerm;43282;47.188;8.896;2023-03-30T00:53:20;51.48;42.09;70.50;;
57439;Laerm;43282;47.188;8.896;2023-03-30T00:55:47;44.45;40.23;57.96;;
57439;Laerm;43282;47.188;8.896;2023-03-30T00:58:13;43.08;39.46;49.95;;
57439;Laerm;43282;47.188;8.896;2023-03-30T01:00:40;43.28;38.95;52.83;;
57439;Laerm;43282;47.188;8.896;2023-03-30T01:03:13;42.21;38.05;51.09;;
57439;Laerm;43282;47.188;8.896;2023-03-30T01:05:40;43.08;38.52;52.14;;
57439;Laerm;43282;47.188;8.896;2023-03-30T01:08:06;44.10;39.21;52.96;;
57439;Laerm;43282;47.188;8.896;2023-03-30T01:10:33;42.65;38.95;47.81;;
57439;Laerm;43282;47.188;8.896;2023-03-30T01:12:59;41.14;38.67;46.47;;
57439;Laerm;43282;47.188;8.896;2023-03-30T01:15:24;52.97;39.08;70.58;;
57439;Laerm;43282;47.188;8.896;2023-03-30T01:20:40;47.27;40.53;55.74;;
57439;Laerm;43282;47.188;8.896;2023-03-30T01:23:30;42.95;39.34;52.69;;
57439;Laerm;43282;47.188;8.896;2023-03-30T01:31:12;42.36;38.52;50.17;;
57439;Laerm;43282;47.188;8.896;2023-03-30T01:36:25;49.10;41.22;66.26;;
57439;Laerm;43282;47.188;8.896;2023-03-30T01:46:30;45.51;38.95;62.47;;
57439;Laerm;43282;47.188;8.896;2023-03-30T01:51:24;42.79;39.92;46.62;;
57439;Laerm;43282;47.188;8.896;2023-03-30T01:53:52;43.00;40.53;48.57;;
57439;Laerm;43282;47.188;8.896;2023-03-30T01:58:47;45.83;39.81;61.98;;
57439;Laerm;43282;47.188;8.896;2023-03-30T02:01:14;46.11;39.81;62.19;;
57439;Laerm;43282;47.188;8.896;2023-03-30T02:03:42;46.74;40.71;61.18;;
57439;Laerm;43282;47.188;8.896;2023-03-30T02:06:24;42.68;39.70;50.75;;
57439;Laerm;43282;47.188;8.896;2023-03-30T02:08:51;45.66;39.81;63.03;;
57439;Laerm;43282;47.188;8.896;2023-03-30T02:11:18;47.20;40.03;64.40;;
57439;Laerm;43282;47.188;8.896;2023-03-30T02:13:44;42.80;39.46;49.57;;
57439;Laerm;43282;47.188;8.896;2023-03-30T02:16:12;46.66;40.62;63.12;;
57439;Laerm;43282;47.188;8.896;2023-03-30T02:18:40;47.32;41.30;62.18;;
57439;Laerm;43282;47.188;8.896;2023-03-30T02:21:05;44.57;41.53;55.68;;
57439;Laerm;43282;47.188;8.896;2023-03-30T02:23:31;44.61;41.14;54.71;;
57439;Laerm;43282;47.188;8.896;2023-03-30T02:25:59;46.68;41.03;61.93;;
57439;Laerm;43282;47.188;8.896;2023-03-30T02:28:24;44.74;40.33;55.38;;
57439;Laerm;43282;47.188;8.896;2023-03-30T02:30:50;45.95;39.21;64.62;;
57439;Laerm;43282;47.188;8.896;2023-03-30T02:33:19;47.46;40.36;64.67;;
57439;Laerm;43282;47.188;8.896;2023-03-30T02:41:27;46.23;38.67;62.03;;
57439;Laerm;43282;47.188;8.896;2023-03-30T02:46:54;51.94;39.92;62.02;;
57439;Laerm;43282;47.188;8.896;2023-03-30T02:52:00;52.64;38.21;72.38;;
57439;Laerm;43282;47.188;8.896;2023-03-30T02:59:35;50.20;40.89;60.75;;
57439;Laerm;43282;47.188;8.896;2023-03-30T03:02:05;50.68;43.58;61.95;;
57439;Laerm;43282;47.188;8.896;2023-03-30T03:04:35;54.81;43.68;70.48;;
57439;Laerm;43282;47.188;8.896;2023-03-30T03:07:00;56.44;43.04;81.32;;
57439;Laerm;43282;47.188;8.896;2023-03-30T03:09:26;55.11;45.83;70.40;;
57439;Laerm;43282;47.188;8.896;2023-03-30T03:11:53;53.69;44.35;70.98;;
57439;Laerm;43282;47.188;8.896;2023-03-30T03:14:18;53.80;44.23;63.35;;
57439;Laerm;43282;47.188;8.896;2023-03-30T03:16:44;53.96;44.97;66.14;;
57439;Laerm;43282;47.188;8.896;2023-03-30T03:19:10;54.63;45.17;66.05;;
57439;Laerm;43282;47.188;8.896;2023-03-30T03:21:35;51.86;45.27;61.62;;
57439;Laerm;43282;47.188;8.896;2023-03-30T03:24:01;49.99;43.04;62.52;;
57439;Laerm;43282;47.188;8.896;2023-03-30T03:26:27;53.71;45.20;63.70;;
57439;Laerm;43282;47.188;8.896;2023-03-30T03:28:52;53.48;45.27;63.35;;
57439;Laerm;43282;47.188;8.896;2023-03-30T03:31:17;65.77;46.84;85.17;;
57439;Laerm;43282;47.188;8.896;2023-03-30T03:33:42;55.78;47.08;66.64;;
57439;Laerm;43282;47.188;8.896;2023-03-30T03:36:08;55.65;47.91;65.40;;
57439;Laerm;43282;47.188;8.896;2023-03-30T03:38:35;57.54;48.64;68.88;;
57439;Laerm;43282;47.188;8.896;2023-03-30T03:41:00;59.10;50.15;68.01;;
57439;Laerm;43282;47.188;8.896;2023-03-30T03:43:25;60.03;48.02;73.84;;
57439;Laerm;43282;47.188;8.896;2023-03-30T03:45:51;57.02;47.50;69.97;;
57439;Laerm;43282;47.188;8.896;2023-03-30T03:48:17;56.86;46.95;71.07;;
57439;Laerm;43282;47.188;8.896;2023-03-30T03:50:43;55.77;46.07;67.16;;
57439;Laerm;43282;47.188;8.896;2023-03-30T03:53:09;57.18;47.81;67.68;;
57439;Laerm;43282;47.188;8.896;2023-03-30T03:55:34;58.33;48.78;67.34;;
57439;Laerm;43282;47.188;8.896;2023-03-30T03:58:00;61.01;52.34;73.16;;
57439;Laerm;43282;47.188;8.896;2023-03-30T04:00:26;62.44;53.70;75.54;;
57439;Laerm;43282;47.188;8.896;2023-03-30T04:02:51;62.25;53.99;75.59;;
57439;Laerm;43282;47.188;8.896;2023-03-30T04:05:17;62.40;53.36;79.26;;
57439;Laerm;43282;47.188;8.896;2023-03-30T04:07:42;60.13;53.52;69.07;;
57439;Laerm;43282;47.188;8.896;2023-03-30T04:10:11;60.67;49.36;75.64;;
57439;Laerm;43282;47.188;8.896;2023-03-30T04:12:36;59.04;52.51;72.07;;
57439;Laerm;43282;47.188;8.896;2023-03-30T04:15:03;61.08;51.98;71.15;;
57439;Laerm;43282;47.188;8.896;2023-03-30T04:17:28;62.88;47.74;76.31;;
57439;Laerm;43282;47.188;8.896;2023-03-30T04:19:57;60.38;48.45;68.58;;
57439;Laerm;43282;47.188;8.896;2023-03-30T04:22:23;59.40;52.92;68.74;;
57439;Laerm;43282;47.188;8.896;2023-03-30T04:24:49;59.69;51.87;70.85;;
57439;Laerm;43282;47.188;8.896;2023-03-30T04:27:15;57.99;51.32;67.44;;
57439;Laerm;43282;47.188;8.896;2023-03-30T04:29:41;58.74;50.25;73.41;;
57439;Laerm;43282;47.188;8.896;2023-03-30T04:32:09;59.94;51.65;70.01;;
57439;Laerm;43282;47.188;8.896;2023-03-30T04:34:34;61.45;54.31;71.81;;
57439;Laerm;43282;47.188;8.896;2023-03-30T04:36:59;61.87;55.47;71.14;;
57439;Laerm;43282;47.188;8.896;2023-03-30T04:39:25;61.69;53.64;73.77;;
57439;Laerm;43282;47.188;8.896;2023-03-30T04:41:54;63.11;56.01;79.26;;
57439;Laerm;43282;47.188;8.896;2023-03-30T04:44:19;62.46;55.90;70.34;;
57439;Laerm;43282;47.188;8.896;2023-03-30T04:46:46;62.86;56.13;72.91;;
57439;Laerm;43282;47.188;8.896;2023-03-30T04:49:11;62.77;55.09;70.50;;
57439;Laerm;43282;47.188;8.896;2023-03-30T04:51:36;61.53;55.33;69.12;;
57439;Laerm;43282;47.188;8.896;2023-03-30T04:54:03;62.69;54.15;73.47;;
57439;Laerm;43282;47.188;8.896;2023-03-30T04:56:28;61.98;54.77;68.42;;
57439;Laerm;43282;47.188;8.896;2023-03-30T04:58:54;61.25;53.72;68.88;;
57439;Laerm;43282;47.188;8.896;2023-03-30T05:01:20;60.21;50.85;72.74;;
57439;Laerm;43282;47.188;8.896;2023-03-30T05:03:45;57.86;49.58;66.86;;
57439;Laerm;43282;47.188;8.896;2023-03-30T05:06:10;58.89;48.90;71.27;;
57439;Laerm;43282;47.188;8.896;2023-03-30T05:08:37;60.99;47.22;77.53;;
57439;Laerm;43282;47.188;8.896;2023-03-30T05:11:02;60.68;50.83;74.48;;
57439;Laerm;43282;47.188;8.896;2023-03-30T05:13:29;58.86;49.36;71.31;;
57439;Laerm;43282;47.188;8.896;2023-03-30T05:15:55;55.93;47.34;65.73;;
57439;Laerm;43282;47.188;8.896;2023-03-30T05:18:20;59.93;51.09;70.21;;
57439;Laerm;43282;47.188;8.896;2023-03-30T05:20:46;59.97;48.90;72.82;;
57439;Laerm;43282;47.188;8.896;2023-03-30T05:23:11;61.62;50.40;75.28;;
57439;Laerm;43282;47.188;8.896;2023-03-30T05:25:36;63.82;53.51;78.55;;
57439;Laerm;43282;47.188;8.896;2023-03-30T05:28:02;60.51;50.53;73.86;;
57439;Laerm;43282;47.188;8.896;2023-03-30T05:30:27;67.99;50.40;86.63;;
57439;Laerm;43282;47.188;8.896;2023-03-30T05:32:53;61.63;47.34;76.45;;
57439;Laerm;43282;47.188;8.896;2023-03-30T05:35:18;62.29;48.23;81.71;;
57439;Laerm;43282;47.188;8.896;2023-03-30T05:37:43;58.84;49.50;69.63;;
57439;Laerm;43282;47.188;8.896;2023-03-30T05:40:09;56.50;47.57;68.29;;
57439;Laerm;43282;47.188;8.896;2023-03-30T05:42:34;58.55;45.23;72.09;;
57439;Laerm;43282;47.188;8.896;2023-03-30T05:45:00;59.03;47.12;76.55;;
57439;Laerm;43282;47.188;8.896;2023-03-30T05:47:26;58.59;46.02;77.98;;
57439;Laerm;43282;47.188;8.896;2023-03-30T05:49:53;58.91;45.72;71.86;;
57439;Laerm;43282;47.188;8.896;2023-03-30T05:52:18;62.24;46.76;78.81;;
57439;Laerm;43282;47.188;8.896;2023-03-30T05:54:43;61.28;51.24;73.71;;
57439;Laerm;43282;47.188;8.896;2023-03-30T05:57:08;59.23;50.54;69.21;;
57439;Laerm;43282;47.188;8.896;2023-03-30T05:59:33;61.01;50.85;73.52;;
57439;Laerm;43282;47.188;8.896;2023-03-30T06:01:59;61.09;51.44;72.93;;
57439;Laerm;43282;47.188;8.896;2023-03-30T06:04:24;62.34;53.04;74.11;;
57439;Laerm;43282;47.188;8.896;2023-03-30T06:06:51;60.38;52.51;70.30;;
57439;Laerm;43282;47.188;8.896;2023-03-30T06:09:17;61.05;49.80;70.94;;
57439;Laerm;43282;47.188;8.896;2023-03-30T06:11:42;59.53;47.81;72.76;;
57439;Laerm;43282;47.188;8.896;2023-03-30T06:14:07;57.14;47.06;71.10;;
57439;Laerm;43282;47.188;8.896;2023-03-30T06:16:34;61.60;47.79;78.36;;
57439;Laerm;43282;47.188;8.896;2023-03-30T06:18:59;61.63;51.96;69.78;;
57439;Laerm;43282;47.188;8.896;2023-03-30T06:21:25;63.49;52.85;78.79;;
57439;Laerm;43282;47.188;8.896;2023-03-30T06:23:50;61.66;52.15;75.49;;
57439;Laerm;43282;47.188;8.896;2023-03-30T06:26:15;63.49;51.14;76.45;;
57439;Laerm;43282;47.188;8.896;2023-03-30T06:28:41;60.79;52.98;69.56;;
57439;Laerm;43282;47.188;8.896;2023-03-30T06:31:07;59.78;53.38;68.54;;
57439;Laerm;43282;47.188;8.896;2023-03-30T06:33:32;60.25;50.52;73.65;;
57439;Laerm;43282;47.188;8.896;2023-03-30T06:35:58;60.58;47.67;76.79;;
57439;Laerm;43282;47.188;8.896;2023-03-30T06:38:23;61.84;48.51;74.42;;
57439;Laerm;43282;47.188;8.896;2023-03-30T06:40:48;60.21;50.53;71.74;;
57439;Laerm;43282;47.188;8.896;2023-03-30T06:43:16;62.46;51.96;78.89;;
57439;Laerm;43282;47.188;8.896;2023-03-30T06:45:42;61.33;50.84;74.05;;
57439;Laerm;43282;47.188;8.896;2023-03-30T06:48:07;57.42;48.60;70.47;;
57439;Laerm;43282;47.188;8.896;2023-03-30T06:50:33;61.49;49.59;82.15;;
57439;Laerm;43282;47.188;8.896;2023-03-30T06:52:58;62.58;53.64;78.86;;
57439;Laerm;43282;47.188;8.896;2023-03-30T06:55:23;63.12;51.81;76.79;;
57439;Laerm;43282;47.188;8.896;2023-03-30T06:57:48;62.50;52.90;79.06;;
57439;Laerm;43282;47.188;8.896;2023-03-30T07:00:14;63.23;54.23;75.99;;
57439;Laerm;43282;47.188;8.896;2023-03-30T07:02:40;63.06;55.67;73.49;;
57439;Laerm;43282;47.188;8.896;2023-03-30T07:05:05;64.13;55.88;72.87;;
57439;Laerm;43282;47.188;8.896;2023-03-30T07:07:31;61.54;53.62;70.05;;
57439;Laerm;43282;47.188;8.896;2023-03-30T07:09:57;61.40;55.50;71.86;;
57439;Laerm;43282;47.188;8.896;2023-03-30T07:12:22;65.67;54.91;82.97;;
57439;Laerm;43282;47.188;8.896;2023-03-30T07:14:47;63.46;55.66;73.52;;
57439;Laerm;43282;47.188;8.896;2023-03-30T07:17:12;63.21;55.75;75.83;;
57439;Laerm;43282;47.188;8.896;2023-03-30T07:19:38;62.48;56.50;73.09;;
57439;Laerm;43282;47.188;8.896;2023-03-30T07:22:03;61.98;55.62;69.23;;
57439;Laerm;43282;47.188;8.896;2023-03-30T07:24:28;62.59;55.45;77.54;;
57439;Laerm;43282;47.188;8.896;2023-03-30T07:26:55;62.28;53.07;74.84;;
57439;Laerm;43282;47.188;8.896;2023-03-30T07:29:21;60.22;49.92;79.23;;
57439;Laerm;43282;47.188;8.896;2023-03-30T07:31:46;58.63;49.57;85.74;;
57439;Laerm;43282;47.188;8.896;2023-03-30T07:34:11;60.29;48.58;76.76;;
57439;Laerm;43282;47.188;8.896;2023-03-30T07:36:37;59.94;50.97;74.83;;
57439;Laerm;43282;47.188;8.896;2023-03-30T07:39:02;60.95;49.12;77.32;;
57439;Laerm;43282;47.188;8.896;2023-03-30T07:41:28;59.59;48.45;70.71;;
57439;Laerm;43282;47.188;8.896;2023-03-30T07:43:53;56.23;49.24;63.91;;
57439;Laerm;43282;47.188;8.896;2023-03-30T07:46:18;60.12;50.03;72.62;;
57439;Laerm;43282;47.188;8.896;2023-03-30T07:48:44;64.62;51.71;84.65;;
57439;Laerm;43282;47.188;8.896;2023-03-30T07:51:10;61.38;52.92;76.27;;
57439;Laerm;43282;47.188;8.896;2023-03-30T07:53:37;61.05;52.55;71.22;;
57439;Laerm;43282;47.188;8.896;2023-03-30T07:56:03;59.07;49.14;67.06;;
57439;Laerm;43282;47.188;8.896;2023-03-30T07:58:28;60.49;50.26;72.78;;
57439;Laerm;43282;47.188;8.896;2023-03-30T08:00:53;60.51;49.73;72.75;;
57439;Laerm;43282;47.188;8.896;2023-03-30T08:03:19;63.39;52.57;77.11;;
57439;Laerm;43282;47.188;8.896;2023-03-30T08:05:55;62.12;50.32;77.11;;
57439;Laerm;43282;47.188;8.896;2023-03-30T08:08:21;64.10;56.71;75.86;;
57439;Laerm;43282;47.188;8.896;2023-03-30T08:10:46;61.48;53.93;72.08;;
57439;Laerm;43282;47.188;8.896;2023-03-30T08:13:12;61.49;54.16;70.80;;
57439;Laerm;43282;47.188;8.896;2023-03-30T08:15:37;62.41;51.37;74.05;;
57439;Laerm;43282;47.188;8.896;2023-03-30T08:18:03;61.61;52.38;70.42;;
57439;Laerm;43282;47.188;8.896;2023-03-30T08:20:32;61.19;53.75;72.56;;
57439;Laerm;43282;47.188;8.896;2023-03-30T08:22:58;59.51;53.28;68.05;;
57439;Laerm;43282;47.188;8.896;2023-03-30T08:25:23;59.51;50.75;74.13;;
57439;Laerm;43282;47.188;8.896;2023-03-30T08:27:48;58.35;49.66;71.03;;
57439;Laerm;43282;47.188;8.896;2023-03-30T08:30:14;59.77;49.07;68.87;;
57439;Laerm;43282;47.188;8.896;2023-03-30T08:32:40;58.16;47.36;66.24;;
57439;Laerm;43282;47.188;8.896;2023-03-30T08:35:05;61.24;53.00;73.16;;
57439;Laerm;43282;47.188;8.896;2023-03-30T08:37:31;59.44;51.75;72.31;;
57439;Laerm;43282;47.188;8.896;2023-03-30T08:39:56;59.49;52.75;66.83;;
57439;Laerm;43282;47.188;8.896;2023-03-30T08:42:28;60.31;52.51;73.30;;
57439;Laerm;43282;47.188;8.896;2023-03-30T08:44:55;59.62;50.31;71.83;;
57439;Laerm;43282;47.188;8.896;2023-03-30T08:47:24;58.80;48.57;71.33;;
57439;Laerm;43282;47.188;8.896;2023-03-30T08:50:13;62.67;51.60;74.35;;
57439;Laerm;43282;47.188;8.896;2023-03-30T08:52:38;62.18;55.18;72.80;;
57439;Laerm;43282;47.188;8.896;2023-03-30T08:55:09;61.36;52.43;71.14;;
57439;Laerm;43282;47.188;8.896;2023-03-30T08:57:43;60.55;52.00;72.59;;
57439;Laerm;43282;47.188;8.896;2023-03-30T09:02:45;63.51;56.41;72.62;;
57439;Laerm;43282;47.188;8.896;2023-03-30T09:05:30;74.44;55.95;97.39;;
57439;Laerm;43282;47.188;8.896;2023-03-30T09:08:11;63.75;55.33;79.37;;
57439;Laerm;43282;47.188;8.896;2023-03-30T09:10:40;61.68;54.83;79.86;;
57439;Laerm;43282;47.188;8.896;2023-03-30T09:13:09;62.68;55.28;72.92;;
57439;Laerm;43282;47.188;8.896;2023-03-30T09:15:40;62.04;55.52;71.24;;
57439;Laerm;43282;47.188;8.896;2023-03-30T09:20:54;59.63;50.44;71.43;;
57439;Laerm;43282;47.188;8.896;2023-03-30T09:23:20;59.82;50.89;80.41;;
57439;Laerm;43282;47.188;8.896;2023-03-30T09:28:21;57.71;47.59;69.06;;
57439;Laerm;43282;47.188;8.896;2023-03-30T09:30:50;59.16;47.98;68.89;;
57439;Laerm;43282;47.188;8.896;2023-03-30T09:33:26;61.49;52.49;82.04;;
57439;Laerm;43282;47.188;8.896;2023-03-30T09:36:01;62.01;51.88;73.92;;
57439;Laerm;43282;47.188;8.896;2023-03-30T09:38:30;66.50;52.28;85.03;;
57439;Laerm;43282;47.188;8.896;2023-03-30T09:45:50;60.62;51.99;69.48;;
57439;Laerm;43282;47.188;8.896;2023-03-30T09:48:16;61.68;52.59;75.27;;
57439;Laerm;43282;47.188;8.896;2023-03-30T09:50:42;58.56;49.80;68.87;;
57439;Laerm;43282;47.188;8.896;2023-03-30T09:53:21;60.40;51.43;72.04;;
57439;Laerm;43282;47.188;8.896;2023-03-30T09:55:59;61.33;52.35;76.61;;
57439;Laerm;43282;47.188;8.896;2023-03-30T09:58:26;59.48;47.91;74.31;;
57439;Laerm;43282;47.188;8.896;2023-03-30T10:03:31;63.25;45.94;80.02;;
57439;Laerm;43282;47.188;8.896;2023-03-30T10:06:06;59.04;46.89;68.15;;
57439;Laerm;43282;47.188;8.896;2023-03-30T10:08:40;61.88;49.89;71.51;;
57439;Laerm;43282;47.188;8.896;2023-03-30T10:11:06;60.59;49.27;83.19;;
57439;Laerm;43282;47.188;8.896;2023-03-30T10:13:32;61.15;48.71;73.75;;
57439;Laerm;43282;47.188;8.896;2023-03-30T10:16:03;61.65;48.34;75.32;;
57439;Laerm;43282;47.188;8.896;2023-03-30T10:18:41;59.23;48.60;69.27;;
57439;Laerm;43282;47.188;8.896;2023-03-30T10:23:40;60.02;50.20;74.16;;
57439;Laerm;43282;47.188;8.896;2023-03-30T10:26:11;62.95;48.58;76.43;;
57439;Laerm;43282;47.188;8.896;2023-03-30T10:28:39;62.90;50.41;80.46;;
57439;Laerm;43282;47.188;8.896;2023-03-30T10:31:14;63.87;52.26;86.05;;
57439;Laerm;43282;47.188;8.896;2023-03-30T10:33:41;64.31;53.16;82.38;;
57439;Laerm;43282;47.188;8.896;2023-03-30T10:36:08;60.82;51.64;76.01;;
57439;Laerm;43282;47.188;8.896;2023-03-30T10:38:33;61.27;51.66;79.31;;
57439;Laerm;43282;47.188;8.896;2023-03-30T10:41:00;61.12;50.85;71.62;;
57439;Laerm;43282;47.188;8.896;2023-03-30T10:43:28;61.10;49.52;74.67;;
57439;Laerm;43282;47.188;8.896;2023-03-30T10:45:56;63.37;51.35;75.01;;
57439;Laerm;43282;47.188;8.896;2023-03-30T10:53:31;62.15;51.70;72.47;;
57439;Laerm;43282;47.188;8.896;2023-03-30T11:01:34;65.62;56.23;76.73;;
57439;Laerm;43282;47.188;8.896;2023-03-30T11:04:03;62.97;52.48;74.96;;
57439;Laerm;43282;47.188;8.896;2023-03-30T11:06:33;63.86;52.21;73.54;;
57439;Laerm;43282;47.188;8.896;2023-03-30T11:09:02;62.35;48.71;70.94;;
57439;Laerm;43282;47.188;8.896;2023-03-30T11:11:30;65.63;52.23;76.19;;
57439;Laerm;43282;47.188;8.896;2023-03-30T11:13:59;64.92;54.94;74.70;;
57439;Laerm;43282;47.188;8.896;2023-03-30T11:16:45;65.67;56.79;73.72;;
57439;Laerm;43282;47.188;8.896;2023-03-30T11:19:13;66.51;58.63;76.72;;
57439;Laerm;43282;47.188;8.896;2023-03-30T11:21:47;65.48;59.23;74.11;;
57439;Laerm;43282;47.188;8.896;2023-03-30T11:24:19;65.70;59.18;73.61;;
57439;Laerm;43282;47.188;8.896;2023-03-30T11:39:54;61.83;49.75;73.91;;
57439;Laerm;43282;47.188;8.896;2023-03-30T11:42:23;60.93;49.91;71.22;;
57439;Laerm;43282;47.188;8.896;2023-03-30T11:44:51;61.29;50.29;72.53;;
57439;Laerm;43282;47.188;8.896;2023-03-30T11:47:37;62.77;53.22;75.02;;
57439;Laerm;43282;47.188;8.896;2023-03-30T12:02:54;62.85;52.98;74.13;;
57439;Laerm;43282;47.188;8.896;2023-03-30T12:10:23;59.61;49.34;71.29;;
57439;Laerm;43282;47.188;8.896;2023-03-30T12:12:50;59.73;47.30;72.21;;
57439;Laerm;43282;47.188;8.896;2023-03-30T12:26:00;58.44;45.20;71.46;;
57439;Laerm;43282;47.188;8.896;2023-03-30T12:28:38;59.02;46.62;74.59;;
57439;Laerm;43282;47.188;8.896;2023-03-30T12:31:03;60.57;44.87;74.42;;
57439;Laerm;43282;47.188;8.896;2023-03-30T12:33:33;60.75;46.57;73.49;;
57439;Laerm;43282;47.188;8.896;2023-03-30T12:36:21;60.07;45.83;74.87;;
57439;Laerm;43282;47.188;8.896;2023-03-30T12:38:47;58.76;47.28;67.82;;
57439;Laerm;43282;47.188;8.896;2023-03-30T12:41:13;61.52;46.73;76.54;;
57439;Laerm;43282;47.188;8.896;2023-03-30T12:43:55;62.43;48.28;75.56;;
57439;Laerm;43282;47.188;8.896;2023-03-30T12:53:59;59.84;43.68;78.11;;
57439;Laerm;43282;47.188;8.896;2023-03-30T13:04:13;59.84;45.36;73.93;;
57439;Laerm;43282;47.188;8.896;2023-03-30T13:06:47;58.56;44.27;69.40;;
57439;Laerm;43282;47.188;8.896;2023-03-30T13:27:09;64.39;49.04;74.40;;
57439;Laerm;43282;47.188;8.896;2023-03-30T13:29:35;63.43;48.91;76.29;;
57439;Laerm;43282;47.188;8.896;2023-03-30T13:32:02;61.55;47.68;72.66;;
57439;Laerm;43282;47.188;8.896;2023-03-30T13:37:23;63.33;50.94;72.85;;
57439;Laerm;43282;47.188;8.896;2023-03-30T13:42:44;63.61;49.56;78.30;;
57439;Laerm;43282;47.188;8.896;2023-03-30T13:45:24;65.62;52.59;82.61;;
57439;Laerm;43282;47.188;8.896;2023-03-30T13:50:24;64.74;52.09;73.03;;
57439;Laerm;43282;47.188;8.896;2023-03-30T13:52:51;69.20;53.35;84.62;;
57439;Laerm;43282;47.188;8.896;2023-03-30T13:55:21;67.33;49.90;82.61;;
57439;Laerm;43282;47.188;8.896;2023-03-30T13:57:48;65.21;50.19;76.99;;
57439;Laerm;43282;47.188;8.896;2023-03-30T14:00:55;64.48;50.50;77.75;;
57439;Laerm;43282;47.188;8.896;2023-03-30T14:05:51;64.39;50.08;73.10;;
57439;Laerm;43282;47.188;8.896;2023-03-30T14:08:16;61.05;46.66;70.50;;
57439;Laerm;43282;47.188;8.896;2023-03-30T14:10:45;63.06;46.76;75.73;;
57439;Laerm;43282;47.188;8.896;2023-03-30T14:13:11;61.84;46.78;70.25;;
57439;Laerm;43282;47.188;8.896;2023-03-30T14:15:36;61.20;46.93;70.68;;
57439;Laerm;43282;47.188;8.896;2023-03-30T14:18:03;62.34;49.36;73.69;;
57439;Laerm;43282;47.188;8.896;2023-03-30T14:23:14;61.71;48.03;75.18;;
57439;Laerm;43282;47.188;8.896;2023-03-30T14:25:40;62.03;47.98;74.08;;
57439;Laerm;43282;47.188;8.896;2023-03-30T14:28:12;63.12;50.79;72.69;;
57439;Laerm;43282;47.188;8.896;2023-03-30T14:30:46;62.13;47.72;71.61;;
57439;Laerm;43282;47.188;8.896;2023-03-30T14:33:11;62.76;48.90;72.29;;
57439;Laerm;43282;47.188;8.896;2023-03-30T14:35:41;61.65;49.10;73.06;;
57439;Laerm;43282;47.188;8.896;2023-03-30T14:38:10;60.93;49.43;73.46;;
57439;Laerm;43282;47.188;8.896;2023-03-30T14:40:38;63.01;50.89;72.46;;
57439;Laerm;43282;47.188;8.896;2023-03-30T14:43:05;62.32;48.77;72.38;;
57439;Laerm;43282;47.188;8.896;2023-03-30T14:45:30;63.74;52.40;72.33;;
57439;Laerm;43282;47.188;8.896;2023-03-30T14:47:57;63.63;53.33;72.48;;
57439;Laerm;43282;47.188;8.896;2023-03-30T14:50:22;63.97;53.06;76.27;;
57439;Laerm;43282;47.188;8.896;2023-03-30T14:52:48;64.55;50.64;76.61;;
57439;Laerm;43282;47.188;8.896;2023-03-30T14:55:19;64.77;51.40;73.12;;
57439;Laerm;43282;47.188;8.896;2023-03-30T14:57:45;61.71;51.05;71.48;;
57439;Laerm;43282;47.188;8.896;2023-03-30T15:00:14;60.94;51.26;69.33;;
57439;Laerm;43282;47.188;8.896;2023-03-30T15:05:16;63.44;52.15;70.88;;
57439;Laerm;43282;47.188;8.896;2023-03-30T15:07:42;63.85;54.46;73.24;;
57439;Laerm;43282;47.188;8.896;2023-03-30T15:10:20;61.99;53.57;74.08;;
57439;Laerm;43282;47.188;8.896;2023-03-30T15:12:46;62.31;52.28;73.06;;
57439;Laerm;43282;47.188;8.896;2023-03-30T15:15:12;62.91;54.46;74.58;;
57439;Laerm;43282;47.188;8.896;2023-03-30T15:17:38;61.14;49.60;71.00;;
57439;Laerm;43282;47.188;8.896;2023-03-30T15:20:07;63.63;53.07;74.81;;
57439;Laerm;43282;47.188;8.896;2023-03-30T15:22:36;61.86;53.03;79.40;;
57439;Laerm;43282;47.188;8.896;2023-03-30T15:25:04;61.92;53.23;70.29;;
57439;Laerm;43282;47.188;8.896;2023-03-30T15:27:31;61.50;52.21;69.94;;
57439;Laerm;43282;47.188;8.896;2023-03-30T15:29:57;61.63;53.70;69.53;;
57439;Laerm;43282;47.188;8.896;2023-03-30T15:32:38;62.88;54.99;74.06;;
57439;Laerm;43282;47.188;8.896;2023-03-30T15:35:21;60.54;50.95;69.81;;
57439;Laerm;43282;47.188;8.896;2023-03-30T15:37:54;62.86;51.49;74.60;;
57439;Laerm;43282;47.188;8.896;2023-03-30T15:40:30;60.94;51.89;71.14;;
57439;Laerm;43282;47.188;8.896;2023-03-30T15:43:12;60.74;54.25;67.32;;
57439;Laerm;43282;47.188;8.896;2023-03-30T15:45:38;61.28;51.64;72.37;;
57439;Laerm;43282;47.188;8.896;2023-03-30T15:48:04;59.42;50.66;66.02;;
57439;Laerm;43282;47.188;8.896;2023-03-30T15:50:30;60.75;52.62;71.10;;
57439;Laerm;43282;47.188;8.896;2023-03-30T15:52:59;62.48;53.35;77.64;;
57439;Laerm;43282;47.188;8.896;2023-03-30T15:55:26;61.09;52.92;72.14;;
57439;Laerm;43282;47.188;8.896;2023-03-30T15:57:52;59.28;52.09;66.03;;
57439;Laerm;43282;47.188;8.896;2023-03-30T16:00:19;59.46;52.57;73.78;;
57439;Laerm;43282;47.188;8.896;2023-03-30T16:02:46;62.07;53.19;77.35;;
57439;Laerm;43282;47.188;8.896;2023-03-30T16:05:19;60.55;51.30;70.96;;
57439;Laerm;43282;47.188;8.896;2023-03-30T16:07:44;60.77;53.28;70.97;;
57439;Laerm;43282;47.188;8.896;2023-03-30T16:10:13;60.74;53.81;75.13;;
57439;Laerm;43282;47.188;8.896;2023-03-30T16:12:40;60.36;51.53;69.09;;
57439;Laerm;43282;47.188;8.896;2023-03-30T16:15:07;61.67;54.04;73.09;;
57439;Laerm;43282;47.188;8.896;2023-03-30T16:17:33;61.78;53.27;74.55;;
57439;Laerm;43282;47.188;8.896;2023-03-30T16:19:58;60.13;50.84;69.36;;
57439;Laerm;43282;47.188;8.896;2023-03-30T16:22:24;61.49;50.02;76.87;;
57439;Laerm;43282;47.188;8.896;2023-03-30T16:24:49;60.84;54.34;68.89;;
57439;Laerm;43282;47.188;8.896;2023-03-30T16:27:15;60.04;52.18;69.11;;
57439;Laerm;43282;47.188;8.896;2023-03-30T16:29:40;58.19;50.80;68.66;;